createdAt,value
2023-04-22T00:00:50.178Z,22.28
2023-04-22T00:01:50.163Z,22.29
2023-04-22T00:02:50.260Z,22.34
2023-04-22T00:03:50.347Z,22.32
2023-04-22T00:04:50.405Z,22.31
2023-04-22T00:05:50.303Z,22.26
2023-04-22T00:06:50.198Z,22.31
2023-04-22T00:07:50.213Z,22.24
2023-04-22T00:08:50.222Z,22.31
2023-04-22T00:09:50.209Z,22.31
2023-04-22T00:10:50.207Z,22.28
2023-04-22T00:11:50.214Z,22.34
2023-04-22T00:12:50.200Z,22.32
2023-04-22T00:13:50.228Z,22.34
2023-04-22T00:14:50.222Z,22.31
2023-04-22T00:15:50.277Z,22.31
2023-04-22T00:16:50.235Z,22.31
2023-04-22T00:17:50.287Z,22.29
2023-04-22T00:18:50.224Z,22.34
2023-04-22T00:19:50.252Z,22.29
2023-04-22T00:20:50.254Z,22.28
2023-04-22T00:21:50.271Z,22.29
2023-04-22T00:22:50.260Z,22.26
2023-04-22T00:23:50.265Z,22.26
2023-04-22T00:24:50.272Z,22.23
2023-04-22T00:25:50.272Z,22.32
2023-04-22T00:26:50.270Z,22.31
2023-04-22T00:27:50.279Z,22.29
2023-04-22T00:28:50.287Z,22.29
2023-04-22T00:29:50.308Z,22.26
2023-04-22T00:30:50.310Z,22.31
2023-04-22T00:31:50.416Z,22.31
2023-04-22T00:32:50.525Z,22.32
2023-04-22T00:33:50.332Z,22.32
2023-04-22T00:34:50.355Z,22.32
2023-04-22T00:35:50.375Z,22.34
2023-04-22T00:36:50.355Z,22.40
2023-04-22T00:37:50.390Z,22.29
2023-04-22T00:38:50.375Z,22.35
2023-04-22T00:39:50.401Z,22.34
2023-04-22T00:40:50.399Z,22.35
2023-04-22T00:41:50.418Z,22.35
2023-04-22T00:42:50.398Z,22.35
2023-04-22T00:43:50.413Z,22.34
2023-04-22T00:44:50.413Z,22.35
2023-04-22T00:45:50.447Z,22.34
2023-04-22T00:46:50.518Z,22.32
2023-04-22T00:47:50.472Z,22.34
2023-04-22T00:48:50.448Z,22.32
2023-04-22T00:49:50.481Z,22.37
2023-04-22T00:50:50.493Z,22.34
2023-04-22T00:51:50.495Z,22.35
2023-04-22T00:52:50.497Z,22.31
2023-04-22T00:53:50.505Z,22.34
2023-04-22T00:54:50.509Z,22.37
2023-04-22T00:55:50.532Z,22.35
2023-04-22T00:56:50.543Z,22.37
2023-04-22T00:57:50.552Z,22.41
2023-04-22T00:58:50.554Z,22.35
2023-04-22T00:59:50.553Z,22.40
2023-04-22T01:00:50.617Z,22.37
2023-04-22T01:01:50.635Z,22.38
2023-04-22T01:02:50.672Z,22.41
2023-04-22T01:03:50.816Z,22.38
2023-04-22T01:04:50.598Z,22.38
2023-04-22T01:05:50.632Z,22.38
2023-04-22T01:06:50.619Z,22.40
2023-04-22T01:07:50.631Z,22.35
2023-04-22T01:08:50.646Z,22.35
2023-04-22T01:09:50.635Z,22.35
2023-04-22T01:10:50.670Z,22.38
2023-04-22T01:11:50.670Z,22.44
2023-04-22T01:12:50.649Z,22.43
2023-04-22T01:13:50.671Z,22.38
2023-04-22T01:14:50.682Z,22.35
2023-04-22T01:15:50.702Z,22.38
2023-04-22T01:16:50.698Z,22.45
2023-04-22T01:17:50.703Z,22.44
2023-04-22T01:18:50.705Z,22.41
2023-04-22T01:19:50.713Z,22.44
2023-04-22T01:20:50.712Z,22.41
2023-04-22T01:21:50.721Z,22.41
2023-04-22T01:22:50.713Z,22.44
2023-04-22T01:23:50.742Z,22.41
2023-04-22T01:24:50.734Z,22.50
2023-04-22T01:25:50.756Z,22.45
2023-04-22T01:26:50.775Z,22.44
2023-04-22T01:27:50.775Z,22.45
2023-04-22T01:28:50.773Z,22.45
2023-04-22T01:29:50.788Z,22.47
2023-04-22T01:30:50.787Z,22.41
2023-04-22T01:31:50.827Z,22.49
2023-04-22T01:32:50.886Z,22.44
2023-04-22T01:33:50.816Z,22.50
2023-04-22T01:34:50.834Z,22.49
2023-04-22T01:35:50.849Z,22.44
2023-04-22T01:36:50.860Z,22.47
2023-04-22T01:37:50.868Z,22.49
2023-04-22T01:38:50.890Z,22.45
2023-04-22T01:39:50.880Z,22.49
2023-04-22T01:40:50.888Z,22.47
2023-04-22T01:41:50.905Z,22.44
2023-04-22T01:42:50.923Z,22.43
2023-04-22T01:43:50.910Z,22.47
2023-04-22T01:44:50.938Z,22.47
2023-04-22T01:45:51.010Z,22.44
2023-04-22T01:46:50.975Z,22.44
2023-04-22T01:47:51.106Z,22.50
2023-04-22T01:48:50.972Z,22.47
2023-04-22T01:49:50.968Z,22.48
2023-04-22T01:50:51.008Z,22.44
2023-04-22T01:51:51.041Z,22.42
2023-04-22T01:52:51.011Z,22.48
2023-04-22T01:53:51.002Z,22.48
2023-04-22T01:54:51.042Z,22.47
2023-04-22T01:55:51.033Z,22.42
2023-04-22T01:56:51.025Z,22.47
2023-04-22T01:57:51.044Z,22.44
2023-04-22T01:58:51.054Z,22.44
2023-04-22T01:59:51.078Z,22.44
2023-04-22T02:00:51.147Z,22.50
2023-04-22T02:01:51.180Z,22.50
2023-04-22T02:02:51.167Z,22.42
2023-04-22T02:03:51.192Z,22.47
2023-04-22T02:04:51.137Z,22.55
2023-04-22T02:05:51.132Z,22.47
2023-04-22T02:06:51.169Z,22.50
2023-04-22T02:07:51.146Z,22.45
2023-04-22T02:08:51.165Z,22.51
2023-04-22T02:09:51.177Z,22.47
2023-04-22T02:10:51.190Z,22.48
2023-04-22T02:11:51.194Z,22.47
2023-04-22T02:12:51.213Z,22.47
2023-04-22T02:13:51.227Z,22.50
2023-04-22T02:14:51.240Z,22.50
2023-04-22T02:15:51.326Z,22.51
2023-04-22T02:16:51.253Z,22.53
2023-04-22T02:17:51.284Z,22.42
2023-04-22T02:18:51.276Z,22.51
2023-04-22T02:19:51.319Z,22.48
2023-04-22T02:20:51.319Z,22.51
2023-04-22T02:21:51.321Z,22.50
2023-04-22T02:22:51.340Z,22.56
2023-04-22T02:23:51.354Z,22.48
2023-04-22T02:24:51.353Z,22.54
2023-04-22T02:25:51.405Z,22.51
2023-04-22T02:26:51.370Z,22.50
2023-04-22T02:27:51.381Z,22.55
2023-04-22T02:28:51.405Z,22.51
2023-04-22T02:29:51.438Z,22.53
2023-04-22T02:30:51.422Z,22.51
2023-04-22T02:31:51.591Z,22.55
2023-04-22T02:32:51.500Z,22.51
2023-04-22T02:33:51.472Z,22.54
2023-04-22T02:34:51.484Z,22.50
2023-04-22T02:35:51.491Z,22.48
2023-04-22T02:36:51.516Z,22.48
2023-04-22T02:37:51.534Z,22.51
2023-04-22T02:38:51.540Z,22.51
2023-04-22T02:39:51.528Z,22.50
2023-04-22T02:40:51.549Z,22.47
2023-04-22T02:41:51.557Z,22.50
2023-04-22T02:42:51.563Z,22.47
2023-04-22T02:43:51.592Z,22.47
2023-04-22T02:44:51.590Z,22.47
2023-04-22T02:45:51.616Z,22.44
2023-04-22T02:46:51.667Z,22.50
2023-04-22T02:47:51.699Z,22.48
2023-04-22T02:48:51.634Z,22.48
2023-04-22T02:49:51.667Z,22.45
2023-04-22T02:50:51.674Z,22.50
2023-04-22T02:51:51.691Z,22.45
2023-04-22T02:52:51.684Z,22.51
2023-04-22T02:53:51.732Z,22.48
2023-04-22T02:54:51.708Z,22.47
2023-04-22T02:55:51.766Z,22.50
2023-04-22T02:56:51.737Z,22.48
2023-04-22T02:57:51.749Z,22.50
2023-04-22T02:58:51.764Z,22.51
2023-04-22T02:59:51.774Z,22.48
2023-04-22T03:00:51.813Z,22.48
2023-04-22T03:01:51.818Z,22.51
2023-04-22T03:02:51.957Z,22.53
2023-04-22T03:03:51.884Z,22.56
2023-04-22T03:04:51.844Z,22.54
2023-04-22T03:05:51.836Z,22.53
2023-04-22T03:06:51.844Z,22.48
2023-04-22T03:07:51.873Z,22.48
2023-04-22T03:08:51.871Z,22.48
2023-04-22T03:09:51.876Z,22.50
2023-04-22T03:10:51.915Z,22.48
2023-04-22T03:11:51.927Z,22.51
2023-04-22T03:12:51.922Z,22.48
2023-04-22T03:13:51.936Z,22.47
2023-04-22T03:14:51.987Z,22.53
2023-04-22T03:15:52.008Z,22.48
2023-04-22T03:16:52.093Z,22.50
2023-04-22T03:17:52.043Z,22.48
2023-04-22T03:18:52.023Z,22.47
2023-04-22T03:19:52.021Z,22.48
2023-04-22T03:20:52.039Z,22.44
2023-04-22T03:21:52.060Z,22.45
2023-04-22T03:22:52.088Z,22.53
2023-04-22T03:23:52.106Z,22.50
2023-04-22T03:24:52.117Z,22.47
2023-04-22T03:25:52.114Z,22.51
2023-04-22T03:26:52.142Z,22.44
2023-04-22T03:27:52.151Z,22.51
2023-04-22T03:28:52.160Z,22.45
2023-04-22T03:29:52.190Z,22.45
2023-04-22T03:30:52.205Z,22.50
2023-04-22T03:31:52.258Z,22.45
2023-04-22T03:32:52.260Z,22.45
2023-04-22T03:33:52.234Z,22.47
2023-04-22T03:34:52.257Z,22.47
2023-04-22T03:35:52.287Z,22.44
2023-04-22T03:36:52.298Z,22.42
2023-04-22T03:37:52.304Z,22.45
2023-04-22T03:38:52.312Z,22.51
2023-04-22T03:39:52.325Z,22.45
2023-04-22T03:40:52.369Z,22.42
2023-04-22T03:41:52.381Z,22.39
2023-04-22T03:42:52.420Z,22.44
2023-04-22T03:43:52.421Z,22.40
2023-04-22T03:44:52.423Z,22.42
2023-04-22T03:45:52.510Z,22.36
2023-04-22T03:46:52.432Z,22.48
2023-04-22T03:47:52.509Z,22.47
2023-04-22T03:48:52.473Z,22.45
2023-04-22T03:49:52.476Z,22.42
2023-04-22T03:50:52.504Z,22.44
2023-04-22T03:51:52.530Z,22.39
2023-04-22T03:52:52.520Z,22.38
2023-04-22T03:53:52.566Z,22.47
2023-04-22T03:54:52.587Z,22.41
2023-04-22T03:55:52.627Z,22.37
2023-04-22T03:56:52.600Z,22.42
2023-04-22T03:57:52.638Z,22.44
2023-04-22T03:58:52.640Z,22.40
2023-04-22T03:59:52.647Z,22.40
2023-04-22T04:00:52.689Z,22.44
2023-04-22T04:01:52.712Z,22.37
2023-04-22T04:02:52.857Z,22.48
2023-04-22T04:03:53.059Z,22.42
2023-04-22T04:04:53.039Z,22.36
2023-04-22T04:05:52.815Z,22.43
2023-04-22T04:06:52.801Z,22.36
2023-04-22T04:07:52.795Z,22.37
2023-04-22T04:08:52.830Z,22.41
2023-04-22T04:09:52.851Z,22.36
2023-04-22T04:10:52.867Z,22.39
2023-04-22T04:11:52.882Z,22.37
2023-04-22T04:12:52.880Z,22.39
2023-04-22T04:13:52.965Z,22.41
2023-04-22T04:14:52.917Z,22.42
2023-04-22T04:15:52.987Z,22.37
2023-04-22T04:16:52.974Z,22.39
2023-04-22T04:17:53.021Z,22.38
2023-04-22T04:18:53.008Z,22.37
2023-04-22T04:19:53.015Z,22.36
2023-04-22T04:20:53.040Z,22.38
2023-04-22T04:21:53.087Z,22.34
2023-04-22T04:22:53.090Z,22.39
2023-04-22T04:23:53.101Z,22.37
2023-04-22T04:24:53.123Z,22.39
2023-04-22T04:25:53.130Z,22.37
2023-04-22T04:26:53.161Z,22.39
2023-04-22T04:27:53.179Z,22.36
2023-04-22T04:28:53.193Z,22.37
2023-04-22T04:29:53.212Z,22.34
2023-04-22T04:30:53.264Z,22.41
2023-04-22T04:31:53.278Z,22.37
2023-04-22T04:32:53.288Z,22.34
2023-04-22T04:33:53.924Z,22.42
2023-04-22T04:34:53.292Z,22.41
2023-04-22T04:35:53.308Z,22.37
2023-04-22T04:36:53.326Z,22.36
2023-04-22T04:37:53.321Z,22.34
2023-04-22T04:38:55.191Z,22.36
2023-04-22T04:39:53.381Z,22.36
2023-04-22T04:40:53.382Z,22.39
2023-04-22T04:41:53.418Z,22.34
2023-04-22T04:42:53.450Z,22.39
2023-04-22T04:43:53.441Z,22.39
2023-04-22T04:44:53.447Z,22.37
2023-04-22T04:45:53.520Z,22.39
2023-04-22T04:46:53.536Z,22.37
2023-04-22T04:47:53.594Z,22.39
2023-04-22T04:48:53.523Z,22.36
2023-04-22T04:49:53.562Z,22.38
2023-04-22T04:50:53.566Z,22.39
2023-04-22T04:51:53.596Z,22.38
2023-04-22T04:52:53.610Z,22.36
2023-04-22T04:53:53.635Z,22.42
2023-04-22T04:54:53.641Z,22.39
2023-04-22T04:55:53.671Z,22.38
2023-04-22T04:56:53.687Z,22.39
2023-04-22T04:57:53.710Z,22.41
2023-04-22T04:58:53.745Z,22.44
2023-04-22T04:59:53.740Z,22.41
2023-04-22T05:00:53.754Z,22.38
2023-04-22T05:01:53.808Z,22.39
2023-04-22T05:02:53.950Z,22.39
2023-04-22T05:03:53.929Z,22.33
2023-04-22T05:04:53.859Z,22.35
2023-04-22T05:05:53.860Z,22.38
2023-04-22T05:06:53.849Z,22.41
2023-04-22T05:07:53.909Z,22.38
2023-04-22T05:08:53.856Z,22.38
2023-04-22T05:09:53.877Z,22.37
2023-04-22T05:10:53.894Z,22.32
2023-04-22T05:11:53.877Z,22.29
2023-04-22T05:12:53.883Z,22.25
2023-04-22T05:13:53.887Z,22.24
2023-04-22T05:14:53.890Z,22.25
2023-04-22T05:15:53.874Z,22.24
2023-04-22T05:16:53.964Z,22.24
2023-04-22T05:17:53.993Z,22.18
2023-04-22T05:18:53.884Z,22.23
2023-04-22T05:19:54.054Z,22.17
2023-04-22T05:20:53.926Z,22.17
2023-04-22T05:21:53.888Z,22.11
2023-04-22T05:22:53.938Z,22.16
2023-04-22T05:23:53.969Z,22.10
2023-04-22T05:24:54.013Z,22.11
2023-04-22T05:25:54.045Z,22.15
2023-04-22T05:26:54.083Z,22.07
2023-04-22T05:27:54.150Z,22.07
2023-04-22T05:28:54.173Z,22.12
2023-04-22T05:29:54.210Z,22.10
2023-04-22T05:30:54.264Z,22.06
2023-04-22T05:31:54.304Z,22.07
2023-04-22T05:32:54.302Z,22.09
2023-04-22T05:33:54.328Z,22.11
2023-04-22T05:34:54.357Z,22.02
2023-04-22T05:35:54.408Z,22.10
2023-04-22T05:36:54.418Z,22.14
2023-04-22T05:37:54.449Z,22.16
2023-04-22T05:38:54.489Z,22.16
2023-04-22T05:39:54.528Z,22.16
2023-04-22T05:40:54.548Z,22.13
2023-04-22T05:41:54.576Z,22.16
2023-04-22T05:42:54.612Z,22.22
2023-04-22T05:43:54.635Z,22.19
2023-04-22T05:44:54.679Z,22.18
2023-04-22T05:45:54.766Z,22.14
2023-04-22T05:46:54.741Z,22.19
2023-04-22T05:47:54.821Z,22.19
2023-04-22T05:48:54.873Z,22.16
2023-04-22T05:49:54.867Z,22.28
2023-04-22T05:50:54.927Z,22.24
2023-04-22T05:51:54.974Z,22.19
2023-04-22T05:52:55.057Z,22.27
2023-04-22T05:53:55.092Z,22.27
2023-04-22T05:54:55.166Z,22.27
2023-04-22T05:55:55.230Z,22.28
2023-04-22T05:56:55.264Z,22.28
2023-04-22T05:57:55.311Z,22.31
2023-04-22T05:58:55.384Z,22.31
2023-04-22T05:59:55.440Z,22.34
2023-04-22T06:00:55.480Z,22.34
2023-04-22T06:01:55.539Z,22.36
2023-04-22T06:02:55.661Z,22.33
2023-04-22T06:03:55.872Z,22.36
2023-04-22T06:04:55.903Z,22.31
2023-04-22T06:05:55.927Z,22.31
2023-04-22T06:06:55.785Z,22.33
2023-04-22T06:07:55.857Z,22.36
2023-04-22T06:08:55.911Z,22.36
2023-04-22T06:10:04.007Z,22.38
2023-04-22T06:10:56.964Z,22.36
2023-04-22T06:11:55.927Z,22.36
2023-04-22T06:12:55.935Z,22.36
2023-04-22T06:13:55.918Z,22.42
2023-04-22T06:14:55.908Z,22.41
2023-04-22T06:15:55.932Z,22.33
2023-04-22T06:16:55.896Z,22.38
2023-04-22T06:17:55.922Z,22.38
2023-04-22T06:18:55.900Z,22.41
2023-04-22T06:19:55.976Z,22.46
2023-04-22T06:20:56.058Z,22.36
2023-04-22T06:21:56.087Z,22.40
2023-04-22T06:22:56.157Z,22.41
2023-04-22T06:23:56.252Z,22.38
2023-04-22T06:24:56.264Z,22.43
2023-04-22T06:25:56.350Z,22.40
2023-04-22T06:26:56.395Z,22.41
2023-04-22T06:27:56.471Z,22.41
2023-04-22T06:28:56.520Z,22.36
2023-04-22T06:29:56.568Z,22.37
2023-04-22T06:30:56.702Z,22.37
2023-04-22T06:31:56.686Z,22.40
2023-04-22T06:32:56.810Z,22.42
2023-04-22T06:33:56.798Z,22.43
2023-04-22T06:34:56.852Z,22.45
2023-04-22T06:35:56.923Z,22.42
2023-04-22T06:36:56.964Z,22.50
2023-04-22T06:37:57.021Z,22.46
2023-04-22T06:38:57.069Z,22.51
2023-04-22T06:39:57.119Z,22.57
2023-04-22T06:40:57.174Z,22.53
2023-04-22T06:41:57.248Z,22.59
2023-04-22T06:42:57.281Z,22.56
2023-04-22T06:43:57.346Z,22.54
2023-04-22T06:44:57.368Z,22.56
2023-04-22T06:45:57.440Z,22.56
2023-04-22T06:46:58.274Z,22.56
2023-04-22T06:47:57.599Z,22.56
2023-04-22T06:48:57.612Z,22.54
2023-04-22T06:49:57.646Z,22.51
2023-04-22T06:50:57.703Z,22.57
2023-04-22T06:51:57.744Z,22.61
2023-04-22T06:52:57.788Z,22.56
2023-04-22T06:53:57.820Z,22.54
2023-04-22T06:54:57.875Z,22.61
2023-04-22T06:55:57.916Z,22.61
2023-04-22T06:56:57.996Z,22.64
2023-04-22T06:57:58.029Z,22.59
2023-04-22T06:58:58.057Z,22.61
2023-04-22T06:59:58.167Z,22.59
2023-04-22T07:00:58.149Z,22.61
2023-04-22T07:01:58.230Z,22.64
2023-04-22T07:02:58.305Z,22.62
2023-04-22T07:03:58.349Z,22.60
2023-04-22T07:04:58.293Z,22.61
2023-04-22T07:05:58.360Z,22.61
2023-04-22T07:06:58.370Z,22.60
2023-04-22T07:07:58.432Z,22.61
2023-04-22T07:08:58.453Z,22.58
2023-04-22T07:09:58.496Z,22.63
2023-04-22T07:10:58.546Z,22.64
2023-04-22T07:11:58.587Z,22.61
2023-04-22T07:12:58.649Z,22.69
2023-04-22T07:13:58.653Z,22.64
2023-04-22T07:14:58.686Z,22.64
2023-04-22T07:15:58.773Z,22.66
2023-04-22T07:16:58.767Z,22.66
2023-04-22T07:17:58.804Z,22.69
2023-04-22T07:18:58.805Z,22.67
2023-04-22T07:19:58.868Z,22.66
2023-04-22T07:20:58.900Z,22.69
2023-04-22T07:21:58.896Z,22.69
2023-04-22T07:22:58.927Z,22.71
2023-04-22T07:23:58.978Z,22.72
2023-04-22T07:24:58.986Z,22.72
2023-04-22T07:25:59.021Z,22.75
2023-04-22T07:26:59.050Z,22.84
2023-04-22T07:27:59.087Z,22.74
2023-04-22T07:28:59.105Z,22.78
2023-04-22T07:29:59.139Z,22.83
2023-04-22T07:30:59.165Z,22.84
2023-04-22T07:31:59.241Z,22.84
2023-04-22T07:32:59.266Z,22.86
2023-04-22T07:33:59.240Z,22.83
2023-04-22T07:34:59.270Z,22.84
2023-04-22T07:35:59.326Z,22.81
2023-04-22T07:36:59.311Z,22.86
2023-04-22T07:37:59.362Z,22.86
2023-04-22T07:38:59.385Z,22.90
2023-04-22T07:39:59.367Z,22.87
2023-04-22T07:40:59.394Z,22.89
2023-04-22T07:41:59.428Z,22.86
2023-04-22T07:42:59.432Z,22.85
2023-04-22T07:43:59.471Z,22.86
2023-04-22T07:44:59.499Z,22.83
2023-04-22T07:45:59.543Z,22.88
2023-04-22T07:46:59.526Z,22.77
2023-04-22T07:47:59.605Z,22.86
2023-04-22T07:48:59.576Z,22.82
2023-04-22T07:49:59.575Z,22.83
2023-04-22T07:50:59.600Z,22.86
2023-04-22T07:51:59.612Z,22.86
2023-04-22T07:52:59.643Z,22.83
2023-04-22T07:53:59.653Z,22.83
2023-04-22T07:54:59.666Z,22.80
2023-04-22T07:56:02.029Z,22.83
2023-04-22T07:56:59.735Z,22.77
2023-04-22T07:57:59.747Z,22.77
2023-04-22T07:58:59.749Z,22.86
2023-04-22T07:59:59.784Z,22.83
2023-04-22T08:00:59.914Z,22.82
2023-04-22T08:01:59.866Z,22.80
2023-04-22T08:02:59.916Z,22.79
2023-04-22T08:04:00.108Z,22.76
2023-04-22T08:04:59.926Z,22.77
2023-04-22T08:05:59.900Z,22.80
2023-04-22T08:07:01.858Z,22.82
2023-04-22T08:07:59.928Z,22.74
2023-04-22T08:08:59.932Z,22.74
2023-04-22T08:09:59.897Z,22.79
2023-04-22T08:10:59.914Z,22.79
2023-04-22T08:11:59.900Z,22.77
2023-04-22T08:12:59.912Z,22.71
2023-04-22T08:13:59.872Z,22.81
2023-04-22T08:14:59.872Z,22.70
2023-04-22T08:15:59.893Z,22.71
2023-04-22T08:16:59.896Z,22.73
2023-04-22T08:17:59.877Z,22.76
2023-04-22T08:18:59.854Z,22.76
2023-04-22T08:19:59.848Z,22.74
2023-04-22T08:20:59.836Z,22.72
2023-04-22T08:21:59.840Z,22.77
2023-04-22T08:22:59.852Z,22.73
2023-04-22T08:23:59.838Z,22.79
2023-04-22T08:24:59.823Z,22.74
2023-04-22T08:25:59.796Z,22.71
2023-04-22T08:26:59.800Z,22.71
2023-04-22T08:27:59.798Z,22.67
2023-04-22T08:28:59.778Z,22.74
2023-04-22T08:29:59.772Z,22.70
2023-04-22T08:30:59.841Z,22.68
2023-04-22T08:31:59.804Z,22.65
2023-04-22T08:32:59.802Z,22.65
2023-04-22T08:33:59.754Z,22.68
2023-04-22T08:35:04.689Z,22.68
2023-04-22T08:36:00.731Z,22.66
2023-04-22T08:36:59.725Z,22.64
2023-04-22T08:37:59.704Z,22.64
2023-04-22T08:38:59.704Z,22.68
2023-04-22T08:39:59.711Z,22.62
2023-04-22T08:40:59.686Z,22.64
2023-04-22T08:41:59.704Z,22.65
2023-04-22T08:42:59.673Z,22.62
2023-04-22T08:43:59.672Z,22.59
2023-04-22T08:44:59.663Z,22.59
2023-04-22T08:45:59.664Z,22.62
2023-04-22T08:47:00.866Z,22.59
2023-04-22T08:47:59.694Z,22.62
2023-04-22T08:48:59.650Z,22.61
2023-04-22T08:49:59.634Z,22.59
2023-04-22T08:50:59.654Z,22.59
2023-04-22T08:51:59.623Z,22.60
2023-04-22T08:52:59.624Z,22.53
2023-04-22T08:53:59.622Z,22.51
2023-04-22T08:54:59.614Z,22.53
2023-04-22T08:55:59.613Z,22.53
2023-04-22T08:56:59.573Z,22.57
2023-04-22T08:57:59.587Z,22.54
2023-04-22T08:58:59.562Z,22.48
2023-04-22T08:59:59.575Z,22.50
2023-04-22T09:00:59.564Z,22.53
2023-04-22T09:01:59.588Z,22.50
2023-04-22T09:02:59.652Z,22.54
2023-04-22T09:03:59.604Z,22.50
2023-04-22T09:04:59.539Z,22.48
2023-04-22T09:05:59.522Z,22.51
2023-04-22T09:06:59.526Z,22.48
2023-04-22T09:07:59.532Z,22.50
2023-04-22T09:08:59.513Z,22.48
2023-04-22T09:09:59.493Z,22.46
2023-04-22T09:10:59.491Z,22.42
2023-04-22T09:11:59.490Z,22.49
2023-04-22T09:12:59.466Z,22.43
2023-04-22T09:13:59.491Z,22.42
2023-04-22T09:14:59.475Z,22.42
2023-04-22T09:16:00.073Z,22.40
2023-04-22T09:16:59.446Z,22.40
2023-04-22T09:17:59.485Z,22.43
2023-04-22T09:18:59.418Z,22.43
2023-04-22T09:19:59.423Z,22.42
2023-04-22T09:20:59.429Z,22.39
2023-04-22T09:21:59.417Z,22.43
2023-04-22T09:22:59.419Z,22.43
2023-04-22T09:23:59.388Z,22.39
2023-04-22T09:24:59.385Z,22.37
2023-04-22T09:25:59.388Z,22.37
2023-04-22T09:26:59.367Z,22.39
2023-04-22T09:27:59.415Z,22.43
2023-04-22T09:28:59.368Z,22.37
2023-04-22T09:29:59.349Z,22.39
2023-04-22T09:30:59.357Z,22.42
2023-04-22T09:31:59.412Z,22.35
2023-04-22T09:32:59.397Z,22.32
2023-04-22T09:33:59.341Z,22.38
2023-04-22T09:34:59.334Z,22.40
2023-04-22T09:35:59.439Z,22.37
2023-04-22T09:36:59.369Z,22.38
2023-04-22T09:37:59.320Z,22.35
2023-04-22T09:38:59.286Z,22.34
2023-04-22T09:39:59.291Z,22.35
2023-04-22T09:40:59.279Z,22.29
2023-04-22T09:41:59.265Z,22.33
2023-04-22T09:42:59.255Z,22.34
2023-04-22T09:43:59.263Z,22.33
2023-04-22T09:45:01.271Z,22.32
2023-04-22T09:45:59.510Z,22.31
2023-04-22T09:46:59.497Z,22.31
2023-04-22T09:47:59.615Z,22.28
2023-04-22T09:48:59.591Z,22.26
2023-04-22T09:49:59.626Z,22.26
2023-04-22T09:50:59.700Z,22.26
2023-04-22T09:51:59.715Z,22.23
2023-04-22T09:52:59.750Z,22.28
2023-04-22T09:53:59.805Z,22.20
2023-04-22T09:54:59.818Z,22.24
2023-04-22T09:55:59.853Z,22.24
2023-04-22T09:56:59.892Z,22.22
2023-04-22T09:57:59.934Z,22.22
2023-04-22T09:58:59.956Z,22.24
2023-04-22T10:00:00.000Z,22.26
2023-04-22T10:01:00.102Z,22.24
2023-04-22T10:02:00.079Z,22.16
2023-04-22T10:03:00.195Z,22.20
2023-04-22T10:04:00.214Z,22.22
2023-04-22T10:05:00.178Z,22.16
2023-04-22T10:06:00.241Z,22.18
2023-04-22T10:07:00.254Z,22.14
2023-04-22T10:08:00.362Z,22.18
2023-04-22T10:09:00.338Z,22.17
2023-04-22T10:10:00.356Z,22.18
2023-04-22T10:11:00.408Z,22.18
2023-04-22T10:12:00.430Z,22.15
2023-04-22T10:13:00.468Z,22.14
2023-04-22T10:14:00.526Z,22.20
2023-04-22T10:15:00.558Z,22.18
2023-04-22T10:16:00.597Z,22.18
2023-04-22T10:17:00.653Z,22.18
2023-04-22T10:18:00.693Z,22.15
2023-04-22T10:19:00.711Z,22.17
2023-04-22T10:20:00.743Z,22.14
2023-04-22T10:21:00.789Z,22.14
2023-04-22T10:22:00.831Z,22.18
2023-04-22T10:23:00.858Z,22.14
2023-04-22T10:24:00.919Z,22.16
2023-04-22T10:25:00.909Z,22.11
2023-04-22T10:26:00.963Z,22.14
2023-04-22T10:27:00.992Z,22.14
2023-04-22T10:28:01.027Z,22.12
2023-04-22T10:29:01.048Z,22.17
2023-04-22T10:30:01.094Z,22.09
2023-04-22T10:31:01.168Z,22.06
2023-04-22T10:32:01.176Z,22.09
2023-04-22T10:33:01.244Z,22.06
2023-04-22T10:34:01.233Z,22.11
2023-04-22T10:35:01.278Z,22.05
2023-04-22T10:36:01.309Z,22.08
2023-04-22T10:37:01.349Z,22.11
2023-04-22T10:38:01.391Z,22.09
2023-04-22T10:39:01.418Z,22.06
2023-04-22T10:40:01.469Z,22.00
2023-04-22T10:41:01.528Z,22.06
2023-04-22T10:42:01.545Z,22.06
2023-04-22T10:43:01.581Z,22.05
2023-04-22T10:44:01.639Z,22.06
2023-04-22T10:45:01.657Z,22.06
2023-04-22T10:46:01.761Z,22.07
2023-04-22T10:47:01.742Z,21.96
2023-04-22T10:48:01.790Z,22.02
2023-04-22T10:49:01.805Z,22.09
2023-04-22T10:50:01.837Z,22.03
2023-04-22T10:51:01.888Z,22.00
2023-04-22T10:52:01.902Z,22.06
2023-04-22T10:53:01.948Z,22.00
2023-04-22T10:54:01.986Z,22.02
2023-04-22T10:55:02.019Z,22.05
2023-04-22T10:56:02.065Z,22.06
2023-04-22T10:57:02.177Z,22.03
2023-04-22T10:58:02.120Z,22.02
2023-04-22T10:59:02.178Z,22.00
2023-04-22T11:00:02.211Z,21.99
2023-04-22T11:01:02.256Z,22.00
2023-04-22T11:02:02.284Z,22.02
2023-04-22T11:03:02.409Z,22.02
2023-04-22T11:04:02.447Z,22.02
2023-04-22T11:05:02.363Z,22.03
2023-04-22T11:06:02.424Z,22.00
2023-04-22T11:07:02.454Z,21.97
2023-04-22T11:08:02.483Z,22.00
2023-04-22T11:09:02.524Z,22.02
2023-04-22T11:10:02.577Z,21.94
2023-04-22T11:11:02.589Z,21.97
2023-04-22T11:12:02.622Z,21.96
2023-04-22T11:13:02.665Z,21.97
2023-04-22T11:14:02.714Z,21.97
2023-04-22T11:15:02.763Z,21.94
2023-04-22T11:16:02.805Z,21.99
2023-04-22T11:17:02.821Z,21.92
2023-04-22T11:18:02.930Z,21.89
2023-04-22T11:19:02.899Z,21.95
2023-04-22T11:20:02.941Z,21.91
2023-04-22T11:21:03.000Z,21.93
2023-04-22T11:22:03.045Z,21.95
2023-04-22T11:23:03.079Z,21.99
2023-04-22T11:24:03.127Z,21.97
2023-04-22T11:25:03.160Z,21.91
2023-04-22T11:26:03.236Z,21.94
2023-04-22T11:27:03.237Z,21.95
2023-04-22T11:28:03.276Z,21.94
2023-04-22T11:29:03.344Z,21.95
2023-04-22T11:30:03.387Z,21.93
2023-04-22T11:31:03.465Z,21.89
2023-04-22T11:32:03.502Z,21.91
2023-04-22T11:33:03.532Z,21.88
2023-04-22T11:34:03.554Z,21.86
2023-04-22T11:35:03.609Z,21.89
2023-04-22T11:36:03.665Z,21.91
2023-04-22T11:37:03.712Z,21.88
2023-04-22T11:38:03.754Z,21.91
2023-04-22T11:39:03.780Z,21.86
2023-04-22T11:41:03.849Z,21.92
2023-04-22T11:42:03.809Z,21.89
2023-04-22T11:43:03.800Z,21.89
2023-04-22T11:44:03.802Z,21.91
2023-04-22T11:45:03.808Z,21.86
2023-04-22T11:46:03.839Z,21.85
2023-04-22T11:47:03.792Z,21.91
2023-04-22T11:48:03.773Z,21.85
2023-04-22T11:49:03.772Z,21.86
2023-04-22T11:50:03.791Z,21.85
2023-04-22T11:51:03.749Z,21.83
2023-04-22T11:52:03.756Z,21.89
2023-04-22T11:53:03.739Z,21.86
2023-04-22T11:54:03.725Z,21.82
2023-04-22T11:55:03.714Z,21.82
2023-04-22T11:56:03.749Z,21.83
2023-04-22T11:57:03.702Z,21.85
2023-04-22T11:58:03.688Z,21.86
2023-04-22T11:59:03.693Z,21.89
2023-04-22T12:00:03.702Z,21.83
2023-04-22T12:01:03.691Z,21.85
2023-04-22T12:02:03.719Z,21.86
2023-04-22T12:03:03.733Z,21.83
2023-04-22T12:04:03.885Z,21.79
2023-04-22T12:05:03.704Z,21.77
2023-04-22T12:06:03.646Z,21.73
2023-04-22T12:07:03.637Z,21.67
2023-04-22T12:08:03.645Z,21.71
2023-04-22T12:09:03.616Z,21.73
2023-04-22T12:10:03.617Z,21.77
2023-04-22T12:11:03.654Z,21.71
2023-04-22T12:12:03.600Z,21.71
2023-04-22T12:13:03.587Z,21.71
2023-04-22T12:14:03.594Z,21.69
2023-04-22T12:15:03.601Z,21.69
2023-04-22T12:16:03.591Z,21.68
2023-04-22T12:17:03.622Z,21.67
2023-04-22T12:18:03.590Z,21.64
2023-04-22T12:19:03.574Z,21.67
2023-04-22T12:20:03.550Z,21.57
2023-04-22T12:21:03.598Z,21.62
2023-04-22T12:22:03.557Z,21.64
2023-04-22T12:23:03.534Z,21.59
2023-04-22T12:24:03.557Z,21.50
2023-04-22T12:25:03.550Z,21.44
2023-04-22T12:26:03.576Z,21.47
2023-04-22T12:27:03.656Z,21.45
2023-04-22T12:28:03.560Z,21.42
2023-04-22T12:29:03.600Z,21.45
2023-04-22T12:30:03.648Z,21.45
2023-04-22T12:31:03.772Z,21.45
2023-04-22T12:32:03.731Z,21.50
2023-04-22T12:33:03.771Z,21.39
2023-04-22T12:34:03.846Z,21.30
2023-04-22T12:35:03.856Z,21.30
2023-04-22T12:36:03.921Z,21.32
2023-04-22T12:37:03.960Z,21.30
2023-04-22T12:38:04.009Z,21.26
2023-04-22T12:39:04.042Z,21.26
2023-04-22T12:40:04.071Z,21.21
2023-04-22T12:41:04.115Z,21.26
2023-04-22T12:42:04.184Z,21.27
2023-04-22T12:43:04.218Z,21.22
2023-04-22T12:44:04.250Z,21.18
2023-04-22T12:45:04.298Z,21.18
2023-04-22T12:46:04.399Z,21.20
2023-04-22T12:47:04.388Z,21.12
2023-04-22T12:48:04.438Z,21.07
2023-04-22T12:49:04.495Z,21.03
2023-04-22T12:50:04.508Z,21.03
2023-04-22T12:51:04.550Z,20.94
2023-04-22T12:52:04.613Z,20.97
2023-04-22T12:53:04.632Z,20.95
2023-04-22T12:54:04.662Z,20.94